createdAt,value
2023-03-26T00:00:21.708Z,99659.22
2023-03-26T00:03:16.691Z,99658.63
2023-03-26T00:05:50.716Z,99649.02
2023-03-26T00:08:24.113Z,99643.70
2023-03-26T00:10:59.542Z,99644.50
2023-03-26T00:13:35.113Z,99655.14
2023-03-26T00:16:10.137Z,99652.48
2023-03-26T00:18:43.918Z,99655.97
2023-03-26T00:21:20.525Z,99652.27
2023-03-26T00:23:54.111Z,99653.90
2023-03-26T00:26:27.593Z,99639.77
2023-03-26T00:29:03.633Z,99639.77
2023-03-26T00:31:38.196Z,99628.53
2023-03-26T00:34:11.786Z,99631.78
2023-03-26T00:36:47.272Z,99635.28
2023-03-26T00:39:21.849Z,99644.05
2023-03-26T00:41:55.871Z,99630.98
2023-03-26T00:44:29.058Z,99643.25
2023-03-26T00:47:02.545Z,99635.28
2023-03-26T00:49:37.174Z,99642.43
2023-03-26T00:52:10.291Z,99643.25
2023-03-26T00:54:44.277Z,99642.43
2023-03-26T00:57:28.974Z,99639.17
2023-03-26T01:00:17.283Z,99631.43
2023-03-26T01:02:51.285Z,99634.89
2023-03-26T01:05:53.282Z,99633.05
2023-03-26T01:08:32.222Z,99638.38
2023-03-26T01:11:14.225Z,99632.61
2023-03-26T01:13:51.894Z,99632.61
2023-03-26T01:16:28.781Z,99629.72
2023-03-26T01:19:02.449Z,99631.34
2023-03-26T01:21:36.456Z,99626.62
2023-03-26T01:24:11.976Z,99619.46
2023-03-26T01:26:56.554Z,99615.77
2023-03-26T01:29:41.418Z,99623.30
2023-03-26T01:32:24.407Z,99630.84
2023-03-26T01:35:13.600Z,99627.95
2023-03-26T01:37:59.087Z,99633.86
2023-03-26T01:40:43.306Z,99640.61
2023-03-26T01:43:27.180Z,99643.03
2023-03-26T01:46:05.470Z,99647.11
2023-03-26T01:48:41.497Z,99647.70
2023-03-26T01:51:16.488Z,99648.06
2023-03-26T01:53:50.979Z,99645.19
2023-03-26T01:56:30.797Z,99651.31
2023-03-26T01:59:16.435Z,99653.77
2023-03-26T02:01:57.877Z,99644.95
2023-03-26T02:04:42.462Z,99647.85
2023-03-26T02:07:22.417Z,99649.92
2023-03-26T02:10:00.662Z,99645.84
2023-03-26T02:12:34.519Z,99652.20
2023-03-26T02:15:12.628Z,99657.77
2023-03-26T02:17:45.933Z,99653.67
2023-03-26T02:20:20.919Z,99661.90
2023-03-26T02:22:54.240Z,99662.94
2023-03-26T02:25:28.658Z,99671.36
2023-03-26T02:28:04.507Z,99667.27
2023-03-26T02:30:38.010Z,99667.27
2023-03-26T02:33:15.811Z,99671.20
2023-03-26T02:35:50.140Z,99669.58
2023-03-26T02:38:25.651Z,99671.64
2023-03-26T02:40:59.890Z,99675.55
2023-03-26T02:43:40.650Z,99666.97
2023-03-26T02:46:15.302Z,99669.27
2023-03-26T02:49:04.870Z,99662.52
2023-03-26T02:51:38.651Z,99672.37
2023-03-26T02:54:23.982Z,99661.34
2023-03-26T02:57:06.996Z,99668.52
2023-03-26T03:00:15.565Z,99659.94
2023-03-26T03:02:53.111Z,99665.47
2023-03-26T03:05:49.392Z,99665.70
2023-03-26T03:08:41.864Z,99668.56
2023-03-26T03:11:54.139Z,99665.31
2023-03-26T03:14:27.525Z,99673.52
2023-03-26T03:17:02.090Z,99678.25
2023-03-26T03:19:35.625Z,99678.45
2023-03-26T03:22:09.006Z,99681.94
2023-03-26T03:24:43.983Z,99678.08
2023-03-26T03:27:18.607Z,99683.41
2023-03-26T03:29:59.578Z,99689.95
2023-03-26T03:32:52.457Z,99678.28
2023-03-26T03:35:29.777Z,99688.33
2023-03-26T03:38:05.158Z,99687.53
2023-03-26T03:40:47.009Z,99685.30
2023-03-26T03:46:04.951Z,99682.20
2023-03-26T03:48:48.444Z,99678.12
2023-03-26T03:51:22.855Z,99684.27
2023-03-26T03:54:00.624Z,99680.19
2023-03-26T04:02:30.587Z,99686.38
2023-03-26T04:05:07.620Z,99687.13
2023-03-26T04:10:33.430Z,99689.63
2023-03-26T04:21:16.155Z,99692.72
2023-03-26T04:23:50.208Z,99690.72
2023-03-26T04:26:48.220Z,99695.81
2023-03-26T04:29:27.981Z,99702.98
2023-03-26T04:37:25.188Z,99696.14
2023-03-26T04:40:10.660Z,99706.02
2023-03-26T04:45:35.977Z,99697.83
2023-03-26T04:48:14.632Z,99716.05
2023-03-26T04:50:49.636Z,99703.09
2023-03-26T04:53:25.324Z,99719.70
2023-03-26T04:56:32.285Z,99729.48
2023-03-26T05:04:26.870Z,99730.50
2023-03-26T05:09:45.861Z,99734.73
2023-03-26T05:12:23.146Z,99733.10
2023-03-26T05:15:13.504Z,99741.91
2023-03-26T05:18:17.260Z,99745.53
2023-03-26T05:20:57.615Z,99751.02
2023-03-26T05:23:31.244Z,99758.80
2023-03-26T05:26:37.838Z,99761.49
2023-03-26T05:29:10.904Z,99768.67
2023-03-26T05:31:50.711Z,99776.39
2023-03-26T05:34:26.580Z,99773.56
2023-03-26T05:36:59.957Z,99768.24
2023-03-26T05:39:58.467Z,99776.39
2023-03-26T05:42:45.723Z,99780.45
2023-03-26T05:45:34.087Z,99779.64
2023-03-26T05:48:16.681Z,99786.59
2023-03-26T05:50:51.903Z,99790.28
2023-03-26T05:53:27.058Z,99800.50
2023-03-26T05:56:30.040Z,99800.06
2023-03-26T05:59:22.211Z,99807.19
2023-03-26T06:02:14.655Z,99815.37
2023-03-26T06:05:17.784Z,99829.76
2023-03-26T06:08:16.364Z,99824.47
2023-03-26T06:11:01.880Z,99832.42
2023-03-26T06:13:42.166Z,99840.23
2023-03-26T06:16:26.375Z,99846.78
2023-03-26T06:19:06.830Z,99843.75
2023-03-26T06:22:03.169Z,99853.19
2023-03-26T06:24:42.030Z,99858.92
2023-03-26T06:27:36.726Z,99875.51
2023-03-26T06:30:29.172Z,99890.86
2023-03-26T06:33:20.305Z,99887.64
2023-03-26T06:35:56.979Z,99884.20
2023-03-26T06:38:31.060Z,99879.96
2023-03-26T06:41:08.904Z,99887.09
2023-03-26T06:43:44.456Z,99889.56
2023-03-26T06:46:39.431Z,99890.22
2023-03-26T06:49:34.636Z,99896.75
2023-03-26T06:52:39.632Z,99878.34
2023-03-26T06:55:32.078Z,99862.63
2023-03-26T06:58:26.355Z,99833.17
2023-03-26T07:01:19.355Z,99832.37
2023-03-26T07:04:11.418Z,99827.85
2023-03-26T07:07:02.159Z,99828.69
2023-03-26T07:09:54.847Z,99837.68
2023-03-26T07:12:47.449Z,99839.09
2023-03-26T07:15:39.891Z,99837.43
2023-03-26T07:18:31.722Z,99838.82
2023-03-26T07:21:07.792Z,99837.73
2023-03-26T07:23:43.858Z,99831.50
2023-03-26T07:26:54.719Z,99843.69
2023-03-26T07:29:38.922Z,99844.27
2023-03-26T07:32:27.136Z,99855.25
2023-03-26T07:35:44.946Z,99853.12
2023-03-26T07:39:00.343Z,99859.21
2023-03-26T07:42:01.563Z,99872.05
2023-03-26T07:48:02.307Z,99870.84
2023-03-26T07:51:00.399Z,99866.55
2023-03-26T07:53:48.229Z,99866.70
2023-03-26T07:56:58.008Z,99874.17
2023-03-26T08:00:19.076Z,99871.97
2023-03-26T08:03:19.139Z,99877.39
2023-03-26T08:06:18.424Z,99874.14
2023-03-26T08:09:13.426Z,99887.46
2023-03-26T08:11:54.913Z,99871.89
2023-03-26T08:14:42.520Z,99885.19
2023-03-26T08:17:18.877Z,99891.79
2023-03-26T08:20:06.121Z,99899.77
2023-03-26T08:22:43.464Z,99897.02
2023-03-26T08:25:33.755Z,99904.94
2023-03-26T08:28:23.648Z,99909.96
2023-03-26T08:30:58.826Z,99909.37
2023-03-26T08:33:35.988Z,99919.94
2023-03-26T08:36:12.109Z,99917.95
2023-03-26T08:38:46.806Z,99917.79
2023-03-26T08:42:02.338Z,99907.73
2023-03-26T08:45:01.145Z,99915.41
2023-03-26T08:48:04.860Z,99915.55
2023-03-26T08:51:21.038Z,99927.09
2023-03-26T08:54:16.369Z,99931.19
2023-03-26T08:57:00.660Z,99930.38
2023-03-26T08:59:55.169Z,99922.56
2023-03-26T09:03:10.295Z,99926.52
2023-03-26T09:06:13.758Z,99925.66
2023-03-26T09:09:32.616Z,99921.26
2023-03-26T09:12:50.883Z,99913.07
2023-03-26T09:16:08.339Z,99906.52
2023-03-26T09:19:13.222Z,99896.49
2023-03-26T09:22:19.366Z,99899.34
2023-03-26T09:25:17.362Z,99894.63
2023-03-26T09:28:26.272Z,99891.26
2023-03-26T09:31:25.047Z,99890.83
2023-03-26T09:34:06.153Z,99885.58
2023-03-26T09:36:58.186Z,99878.42
2023-03-26T09:39:57.740Z,99876.87
2023-03-26T09:42:39.589Z,99875.62
2023-03-26T09:45:52.798Z,99880.54
2023-03-26T09:48:49.870Z,99873.63
2023-03-26T09:51:43.979Z,99887.13
2023-03-26T09:54:40.224Z,99878.84
2023-03-26T09:57:23.939Z,99863.02
2023-03-26T10:00:21.053Z,99858.74
2023-03-26T10:03:13.545Z,99851.78
2023-03-26T10:05:54.421Z,99843.47
2023-03-26T10:08:53.234Z,99847.55
2023-03-26T10:11:39.156Z,99844.04
2023-03-26T10:14:21.971Z,99840.55
2023-03-26T10:17:06.064Z,99829.78
2023-03-26T10:19:51.697Z,99821.41
2023-03-26T10:22:44.142Z,99824.64
2023-03-26T10:25:40.474Z,99825.70
2023-03-26T10:28:38.450Z,99833.52
2023-03-26T10:31:42.295Z,99823.00
2023-03-26T10:34:46.076Z,99818.41
2023-03-26T10:37:29.900Z,99814.58
2023-03-26T10:40:24.744Z,99809.14
2023-03-26T10:43:34.643Z,99798.56
2023-03-26T10:46:29.965Z,99781.27
2023-03-26T10:49:42.872Z,99790.69
2023-03-26T10:52:21.073Z,99786.38
2023-03-26T10:54:59.555Z,99795.81
2023-03-26T10:57:43.490Z,99792.35
2023-03-26T11:00:25.766Z,99787.53
2023-03-26T11:03:34.805Z,99775.92
2023-03-26T11:06:26.068Z,99777.22
2023-03-26T11:09:10.247Z,99774.75
2023-03-26T11:11:49.342Z,99765.02
2023-03-26T11:14:34.323Z,99753.39
2023-03-26T11:17:40.166Z,99754.45
2023-03-26T11:20:28.020Z,99743.72
2023-03-26T11:23:28.005Z,99746.12
2023-03-26T11:26:12.489Z,99750.46
2023-03-26T11:29:32.321Z,99747.56
2023-03-26T11:32:11.924Z,99739.75
2023-03-26T11:34:49.801Z,99741.95
2023-03-26T11:37:33.567Z,99727.41
2023-03-26T11:40:15.708Z,99710.95
2023-03-26T11:42:48.543Z,99713.33
2023-03-26T11:45:25.235Z,99711.13
2023-03-26T11:48:04.226Z,99708.95
2023-03-26T11:50:44.200Z,99709.52
2023-03-26T11:53:20.355Z,99713.33
2023-03-26T11:56:01.236Z,99700.98
2023-03-26T11:58:40.658Z,99694.79
2023-03-26T12:01:30.501Z,99685.84
2023-03-26T12:04:11.389Z,99695.00
2023-03-26T12:06:56.760Z,99693.65
2023-03-26T12:09:30.076Z,99682.03
2023-03-26T12:12:05.873Z,99684.20
2023-03-26T12:14:46.031Z,99673.15
2023-03-26T12:17:31.948Z,99687.69
2023-03-26T12:20:26.490Z,99683.61
2023-03-26T12:23:01.204Z,99673.87
2023-03-26T12:25:39.122Z,99670.61
2023-03-26T12:28:20.413Z,99674.66
2023-03-26T12:31:02.739Z,99660.60
2023-03-26T12:33:39.059Z,99659.74
2023-03-26T12:36:25.730Z,99657.83
2023-03-26T12:40:06.038Z,99660.72
2023-03-26T12:43:40.206Z,99653.91
2023-03-26T12:44:58.919Z,99651.73
2023-03-26T12:47:56.986Z,99644.09
2023-03-26T12:50:57.565Z,99642.44
2023-03-26T12:53:55.724Z,99645.93
2023-03-26T12:56:37.093Z,99643.48
2023-03-26T12:59:36.736Z,99632.38
2023-03-26T13:02:32.849Z,99637.73
2023-03-26T13:05:21.031Z,99635.59
2023-03-26T13:08:08.183Z,99629.67
2023-03-26T13:10:52.378Z,99633.25
2023-03-26T13:14:02.077Z,99617.88
2023-03-26T13:16:42.036Z,99626.80
2023-03-26T13:19:21.919Z,99621.67
2023-03-26T13:22:11.703Z,99605.47
2023-03-26T13:24:55.337Z,99605.77
2023-03-26T13:27:52.509Z,99610.34
2023-03-26T13:30:34.786Z,99616.32
2023-03-26T13:33:32.870Z,99617.19
2023-03-26T13:36:23.121Z,99606.39
2023-03-26T13:39:11.602Z,99601.51
2023-03-26T13:42:11.360Z,99603.12
2023-03-26T13:45:05.143Z,99601.51
2023-03-26T13:47:44.476Z,99603.91
2023-03-26T13:50:26.190Z,99599.38
2023-03-26T13:53:04.740Z,99602.93
2023-03-26T13:55:41.924Z,99597.05
2023-03-26T13:58:22.294Z,99589.52
2023-03-26T14:01:04.112Z,99582.29
2023-03-26T14:03:41.092Z,99585.26
2023-03-26T14:06:20.797Z,99585.26
2023-03-26T14:09:00.138Z,99582.03
2023-03-26T14:11:44.576Z,99577.20
2023-03-26T14:14:25.756Z,99569.41
2023-03-26T14:17:03.561Z,99581.29
2023-03-26T14:19:51.999Z,99573.46
2023-03-26T14:22:35.838Z,99570.54
2023-03-26T14:25:23.652Z,99568.11
2023-03-26T14:28:15.393Z,99563.57
2023-03-26T14:31:04.238Z,99560.91
2023-03-26T14:33:52.510Z,99557.69
2023-03-26T14:36:49.812Z,99559.05
2023-03-26T14:39:48.558Z,99556.91
2023-03-26T14:42:35.861Z,99562.88
2023-03-26T14:45:42.021Z,99560.21
2023-03-26T14:48:59.967Z,99568.34
2023-03-26T14:51:47.710Z,99560.58
2023-03-26T14:54:24.796Z,99568.97
2023-03-26T14:57:16.242Z,99567.13
2023-03-26T15:00:16.020Z,99572.52
2023-03-26T15:06:46.158Z,99564.22
2023-03-26T15:09:51.926Z,99559.41
2023-03-26T15:12:42.097Z,99566.73
2023-03-26T15:16:00.781Z,99566.23
2023-03-26T15:18:59.756Z,99570.58
2023-03-26T15:22:03.459Z,99556.60
2023-03-26T15:25:07.992Z,99558.80
2023-03-26T15:28:17.008Z,99567.70
2023-03-26T15:31:23.334Z,99576.63
2023-03-26T15:34:31.791Z,99573.40
2023-03-26T15:37:35.093Z,99573.41
2023-03-26T15:40:45.141Z,99570.73
2023-03-26T15:43:21.201Z,99573.43
2023-03-26T15:46:16.115Z,99580.97
2023-03-26T15:49:00.896Z,99582.55
2023-03-26T15:51:47.779Z,99578.53
2023-03-26T15:54:30.692Z,99586.32
2023-03-26T15:57:17.691Z,99582.02
2023-03-26T16:00:12.714Z,99581.20
2023-03-26T16:02:54.990Z,99590.88
2023-03-26T16:05:37.216Z,99596.20
2023-03-26T16:08:23.820Z,99591.86
2023-03-26T16:11:00.169Z,99593.45
2023-03-26T16:13:41.933Z,99595.80
2023-03-26T16:16:42.913Z,99590.14
2023-03-26T16:19:50.734Z,99600.02
2023-03-26T16:22:57.650Z,99621.75
2023-03-26T16:25:34.896Z,99636.47
2023-03-26T16:28:32.725Z,99648.25
2023-03-26T16:31:37.534Z,99645.49
2023-03-26T16:34:40.438Z,99658.60
2023-03-26T16:37:46.131Z,99675.15
2023-03-26T16:40:36.538Z,99688.22
2023-03-26T16:43:55.582Z,99686.55
2023-03-26T16:46:38.500Z,99692.65
2023-03-26T16:49:24.459Z,99703.84
2023-03-26T16:52:12.217Z,99697.60
2023-03-26T16:54:53.898Z,99697.81
2023-03-26T16:57:40.108Z,99697.20
2023-03-26T17:00:41.759Z,99704.64
2023-03-26T17:03:40.433Z,99698.11
2023-03-26T17:06:30.977Z,99713.31
2023-03-26T17:09:19.286Z,99727.97
2023-03-26T17:12:04.968Z,99724.67
2023-03-26T17:14:53.847Z,99725.67
2023-03-26T17:17:42.117Z,99728.16
2023-03-26T17:20:27.751Z,99734.50
2023-03-26T17:23:12.208Z,99744.36
2023-03-26T17:25:57.554Z,99740.78
2023-03-26T17:28:55.049Z,99749.30
2023-03-26T17:31:41.844Z,99740.97
2023-03-26T17:35:02.418Z,99748.92
2023-03-26T17:37:48.191Z,99746.41
2023-03-26T17:40:48.267Z,99745.53
2023-03-26T17:43:40.895Z,99745.38
2023-03-26T17:46:34.905Z,99746.02
2023-03-26T17:49:17.566Z,99744.56
2023-03-26T17:51:57.400Z,99756.47
2023-03-26T17:54:35.372Z,99752.91
2023-03-26T17:57:14.486Z,99753.88
2023-03-26T17:59:49.132Z,99753.78
2023-03-26T18:02:30.743Z,99749.14
2023-03-26T18:05:06.088Z,99752.78
2023-03-26T18:08:25.015Z,99758.04
2023-03-26T18:11:20.919Z,99749.57
2023-03-26T18:14:28.711Z,99747.85
2023-03-26T18:17:03.444Z,99747.77
2023-03-26T18:19:50.260Z,99754.63
2023-03-26T18:22:28.116Z,99749.98
2023-03-26T18:25:02.853Z,99751.52
2023-03-26T18:27:41.675Z,99753.03
2023-03-26T18:30:21.236Z,99753.98
2023-03-26T18:33:02.092Z,99754.71
2023-03-26T18:35:44.168Z,99757.03
2023-03-26T18:38:35.547Z,99759.59
2023-03-26T18:41:21.790Z,99764.16
2023-03-26T18:43:57.572Z,99769.06
2023-03-26T18:46:31.303Z,99770.80
2023-03-26T18:49:06.201Z,99773.81
2023-03-26T18:51:50.133Z,99771.28
2023-03-26T18:54:38.115Z,99768.13
2023-03-26T18:57:24.065Z,99765.23
2023-03-26T19:00:09.821Z,99775.20
2023-03-26T19:02:43.650Z,99780.21
2023-03-26T19:05:20.214Z,99784.36
2023-03-26T19:07:54.236Z,99776.44
2023-03-26T19:10:28.033Z,99786.53
2023-03-26T19:13:03.314Z,99789.66
2023-03-26T19:15:37.962Z,99792.20
2023-03-26T19:18:17.641Z,99794.50
2023-03-26T19:20:55.881Z,99793.33
2023-03-26T19:23:33.383Z,99788.69
2023-03-26T19:26:09.368Z,99789.36
2023-03-26T19:28:49.449Z,99794.56
2023-03-26T19:31:28.186Z,99784.01
2023-03-26T19:34:05.243Z,99790.25
2023-03-26T19:36:52.583Z,99783.16
2023-03-26T19:39:36.723Z,99788.80
2023-03-26T19:42:17.715Z,99776.59
2023-03-26T19:44:52.770Z,99784.69
2023-03-26T19:47:46.199Z,99775.72
2023-03-26T19:50:27.390Z,99781.36
2023-03-26T19:53:24.535Z,99772.42
2023-03-26T19:56:00.139Z,99776.19
2023-03-26T19:58:35.722Z,99783.24
2023-03-26T20:01:12.523Z,99785.16
2023-03-26T20:03:48.209Z,99779.89
2023-03-26T20:06:30.827Z,99792.27
2023-03-26T20:09:10.176Z,99791.70
2023-03-26T20:11:43.994Z,99794.65
2023-03-26T20:14:22.095Z,99794.73
2023-03-26T20:16:55.582Z,99798.47
2023-03-26T20:19:29.921Z,99796.92
2023-03-26T20:22:05.944Z,99790.84
2023-03-26T20:24:41.613Z,99801.75
2023-03-26T20:27:16.282Z,99804.45
2023-03-26T20:29:49.840Z,99798.37
2023-03-26T20:32:27.115Z,99788.23
2023-03-26T20:35:00.570Z,99795.20
2023-03-26T20:37:33.963Z,99787.29
2023-03-26T20:40:09.280Z,99787.32
2023-03-26T20:42:43.180Z,99780.20
2023-03-26T20:45:20.235Z,99777.00
2023-03-26T20:47:54.544Z,99771.70
2023-03-26T20:50:28.816Z,99760.30
2023-03-26T20:53:03.196Z,99754.20
2023-03-26T20:55:37.294Z,99756.09
2023-03-26T20:58:13.475Z,99754.28
2023-03-26T21:00:47.182Z,99757.98
2023-03-26T21:03:21.449Z,99759.66
2023-03-26T21:05:54.971Z,99752.70
2023-03-26T21:08:35.737Z,99752.52
2023-03-26T21:11:27.105Z,99753.35
2023-03-26T21:14:07.690Z,99752.56
2023-03-26T21:16:42.973Z,99748.51
2023-03-26T21:19:17.945Z,99747.52
2023-03-26T21:21:59.297Z,99744.06
2023-03-26T21:24:49.634Z,99738.16
2023-03-26T21:27:31.113Z,99738.19
2023-03-26T21:30:08.134Z,99733.48
2023-03-26T21:32:44.976Z,99731.66
2023-03-26T21:35:20.462Z,99729.64
2023-03-26T21:37:58.039Z,99724.94
2023-03-26T21:40:34.386Z,99714.74
2023-03-26T21:43:08.909Z,99707.20
2023-03-26T21:45:44.241Z,99710.07
2023-03-26T21:48:18.608Z,99700.67
2023-03-26T21:50:54.157Z,99714.16
2023-03-26T21:53:31.280Z,99715.37
2023-03-26T21:56:15.763Z,99706.80
2023-03-26T21:58:55.812Z,99697.22
2023-03-26T22:01:38.559Z,99697.44
2023-03-26T22:04:20.435Z,99685.20
2023-03-26T22:06:58.961Z,99687.84
2023-03-26T22:09:36.604Z,99690.69
2023-03-26T22:12:10.644Z,99687.23
2023-03-26T22:14:44.140Z,99693.56
2023-03-26T22:17:17.476Z,99696.22
2023-03-26T22:19:50.930Z,99691.94
2023-03-26T22:22:26.388Z,99691.10
2023-03-26T22:25:00.182Z,99683.98
2023-03-26T22:27:34.058Z,99679.88
2023-03-26T22:30:18.162Z,99678.25
2023-03-26T22:32:51.930Z,99673.17
2023-03-26T22:35:26.473Z,99672.34
2023-03-26T22:38:01.265Z,99679.50
2023-03-26T22:40:34.522Z,99669.30
2023-03-26T22:43:08.279Z,99673.77
2023-03-26T22:45:41.728Z,99669.71
2023-03-26T22:48:15.114Z,99676.03
2023-03-26T22:50:58.705Z,99673.57
2023-03-26T22:53:32.981Z,99670.31
2023-03-26T22:56:06.894Z,99678.27
2023-03-26T22:58:40.751Z,99675.83
2023-03-26T23:01:16.904Z,99674.20
2023-03-26T23:03:50.392Z,99676.02
2023-03-26T23:06:24.399Z,99680.53
2023-03-26T23:08:57.789Z,99681.55
2023-03-26T23:11:31.387Z,99681.73
2023-03-26T23:14:05.671Z,99679.08
2023-03-26T23:16:39.486Z,99668.70
2023-03-26T23:19:12.960Z,99667.87
2023-03-26T23:21:47.024Z,99669.91
2023-03-26T23:24:20.412Z,99671.15
2023-03-26T23:26:54.900Z,99675.63
2023-03-26T23:29:30.294Z,99668.08
2023-03-26T23:32:03.673Z,99679.70
2023-03-26T23:34:58.373Z,99679.09
2023-03-26T23:37:35.235Z,99677.06
2023-03-26T23:40:14.310Z,99673.80
2023-03-26T23:42:47.566Z,99669.70
2023-03-26T23:45:20.852Z,99675.63
2023-03-26T23:47:54.026Z,99671.53
2023-03-26T23:50:29.392Z,99669.70
2023-03-26T23:53:02.775Z,99664.20
2023-03-26T23:55:38.113Z,99658.69
2023-03-26T23:58:11.412Z,99658.05
